KSME/SME METAR and TAF weather

Enter ICAO airport designator
Station Type Date Time Source
KSME METAR 2020/01/28 04:55 UTC NOAA

KSME 280455Z AUTO 33003KT 10SM CLR 00/M02 A3005 RMK AO2


Station Type Date Time Source
KSME Decoded METAR 2020/01/28 04:55 UTC NOAA

Somerset, Somerset-Pulaski County - J.T. Wilson Field Airport, KY, United States (KSME) 37-03-15N 084-36-54W
Jan 27, 2020 - 11:55 PM EST / 2020.01.28 0455 UTC
Wind: from the NNW (330 degrees) at 3 MPH (3 KT):0
Visibility: 10 mile(s):0
Sky conditions: clear
Temperature: 32 F (0 C)
Dew Point: 28 F (-2 C)
Relative Humidity: 86%
Pressure (altimeter): 30.05 in. Hg (1017 hPa)
ob: KSME 280455Z AUTO 33003KT 10SM CLR 00/M02 A3005 RMK AO2
cycle: 5

Station Type Date Time Source
KSME TAF 2020/01/27 18:48 UTC NOAA

TAF KSME 271720Z 2718/2818 29006KT P6SM BKN020
FM272000 29008KT P6SM BKN030
FM280200 31005KT P6SM OVC020

Example: see airport list